sensor_id;sensor_type;location;lat;lon;timestamp;P1;durP1;ratioP1;P2;durP2;ratioP2
72123;SDS011;59998;37.126;-8.538;2022-07-23T00:00:11;13.1;;;6.0;;
72123;SDS011;59998;37.126;-8.538;2022-07-23T00:04:57;13.5;;;6.4;;
72123;SDS011;59998;37.126;-8.538;2022-07-23T00:09:44;12.2;;;6.6;;
72123;SDS011;59998;37.126;-8.538;2022-07-23T00:14:32;11.2;;;6.4;;
72123;SDS011;59998;37.126;-8.538;2022-07-23T00:19:20;11.5;;;6.1;;
72123;SDS011;59998;37.126;-8.538;2022-07-23T00:24:06;13.5;;;6.5;;
72123;SDS011;59998;37.126;-8.538;2022-07-23T00:28:52;12.1;;;6.4;;
72123;SDS011;59998;37.126;-8.538;2022-07-23T00:33:41;11.2;;;6.0;;
72123;SDS011;59998;37.126;-8.538;2022-07-23T00:38:27;14.0;;;6.4;;
72123;SDS011;59998;37.126;-8.538;2022-07-23T00:43:14;12.4;;;6.3;;
72123;SDS011;59998;37.126;-8.538;2022-07-23T00:48:02;11.4;;;6.2;;
72123;SDS011;59998;37.126;-8.538;2022-07-23T00:52:51;11.2;;;6.4;;
72123;SDS011;59998;37.126;-8.538;2022-07-23T00:57:38;10.3;;;6.4;;
72123;SDS011;59998;37.126;-8.538;2022-07-23T01:02:25;12.3;;;7.0;;
72123;SDS011;59998;37.126;-8.538;2022-07-23T01:07:12;14.0;;;7.4;;
72123;SDS011;59998;37.126;-8.538;2022-07-23T01:12:00;12.9;;;6.4;;
72123;SDS011;59998;37.126;-8.538;2022-07-23T01:16:47;11.1;;;5.7;;
72123;SDS011;59998;37.126;-8.538;2022-07-23T01:21:36;10.9;;;6.0;;
72123;SDS011;59998;37.126;-8.538;2022-07-23T01:26:24;10.8;;;6.3;;
72123;SDS011;59998;37.126;-8.538;2022-07-23T01:31:10;10.8;;;6.5;;
72123;SDS011;59998;37.126;-8.538;2022-07-23T01:35:56;10.1;;;6.4;;
72123;SDS011;59998;37.126;-8.538;2022-07-23T01:40:42;11.1;;;6.3;;
72123;SDS011;59998;37.126;-8.538;2022-07-23T01:45:29;11.4;;;6.1;;
72123;SDS011;59998;37.126;-8.538;2022-07-23T01:50:15;11.1;;;6.0;;
72123;SDS011;59998;37.126;-8.538;2022-07-23T01:55:01;11.1;;;5.8;;
72123;SDS011;59998;37.126;-8.538;2022-07-23T01:59:48;11.0;;;6.2;;
72123;SDS011;59998;37.126;-8.538;2022-07-23T02:04:35;13.7;;;6.8;;
72123;SDS011;59998;37.126;-8.538;2022-07-23T02:09:23;13.1;;;6.2;;
72123;SDS011;59998;37.126;-8.538;2022-07-23T02:14:10;10.4;;;5.8;;
72123;SDS011;59998;37.126;-8.538;2022-07-23T02:18:56;9.5;;;6.0;;
72123;SDS011;59998;37.126;-8.538;2022-07-23T02:23:43;9.8;;;6.2;;
72123;SDS011;59998;37.126;-8.538;2022-07-23T02:28:29;10.4;;;6.3;;
72123;SDS011;59998;37.126;-8.538;2022-07-23T02:33:15;9.9;;;6.4;;
72123;SDS011;59998;37.126;-8.538;2022-07-23T02:38:02;10.8;;;6.6;;
72123;SDS011;59998;37.126;-8.538;2022-07-23T02:42:49;11.5;;;6.5;;
72123;SDS011;59998;37.126;-8.538;2022-07-23T02:47:34;10.0;;;6.5;;
72123;SDS011;59998;37.126;-8.538;2022-07-23T02:52:20;9.6;;;6.8;;
72123;SDS011;59998;37.126;-8.538;2022-07-23T02:57:07;11.2;;;6.6;;
72123;SDS011;59998;37.126;-8.538;2022-07-23T03:01:55;12.7;;;6.6;;
72123;SDS011;59998;37.126;-8.538;2022-07-23T03:06:42;11.5;;;6.9;;
72123;SDS011;59998;37.126;-8.538;2022-07-23T03:11:28;11.1;;;6.7;;
72123;SDS011;59998;37.126;-8.538;2022-07-23T03:16:15;12.3;;;6.5;;
72123;SDS011;59998;37.126;-8.538;2022-07-23T03:21:01;12.2;;;6.6;;
72123;SDS011;59998;37.126;-8.538;2022-07-23T03:25:47;11.5;;;6.5;;
72123;SDS011;59998;37.126;-8.538;2022-07-23T03:30:34;11.2;;;6.5;;
72123;SDS011;59998;37.126;-8.538;2022-07-23T03:35:20;11.7;;;6.8;;
72123;SDS011;59998;37.126;-8.538;2022-07-23T03:40:07;13.7;;;7.0;;
72123;SDS011;59998;37.126;-8.538;2022-07-23T03:44:53;14.4;;;7.3;;
72123;SDS011;59998;37.126;-8.538;2022-07-23T03:49:40;12.6;;;7.2;;
72123;SDS011;59998;37.126;-8.538;2022-07-23T03:54:27;15.1;;;7.1;;
72123;SDS011;59998;37.126;-8.538;2022-07-23T03:59:13;15.0;;;7.0;;
72123;SDS011;59998;37.126;-8.538;2022-07-23T04:04:00;11.8;;;7.5;;
72123;SDS011;59998;37.126;-8.538;2022-07-23T04:08:46;12.3;;;7.6;;
72123;SDS011;59998;37.126;-8.538;2022-07-23T04:13:32;12.1;;;7.1;;
72123;SDS011;59998;37.126;-8.538;2022-07-23T04:18:18;11.8;;;7.1;;
72123;SDS011;59998;37.126;-8.538;2022-07-23T04:23:05;13.1;;;7.0;;
72123;SDS011;59998;37.126;-8.538;2022-07-23T04:27:51;14.5;;;7.2;;
72123;SDS011;59998;37.126;-8.538;2022-07-23T04:32:38;15.1;;;7.9;;
72123;SDS011;59998;37.126;-8.538;2022-07-23T04:37:24;12.7;;;7.5;;
72123;SDS011;59998;37.126;-8.538;2022-07-23T04:42:11;11.1;;;7.5;;
72123;SDS011;59998;37.126;-8.538;2022-07-23T04:46:57;13.0;;;7.8;;
72123;SDS011;59998;37.126;-8.538;2022-07-23T04:51:43;13.8;;;7.4;;
72123;SDS011;59998;37.126;-8.538;2022-07-23T04:56:29;12.5;;;7.2;;
72123;SDS011;59998;37.126;-8.538;2022-07-23T05:01:16;10.7;;;7.0;;
72123;SDS011;59998;37.126;-8.538;2022-07-23T05:06:05;11.4;;;7.1;;
72123;SDS011;59998;37.126;-8.538;2022-07-23T05:10:51;14.9;;;7.4;;
72123;SDS011;59998;37.126;-8.538;2022-07-23T05:15:38;15.8;;;7.6;;
72123;SDS011;59998;37.126;-8.538;2022-07-23T05:20:24;13.9;;;7.3;;
72123;SDS011;59998;37.126;-8.538;2022-07-23T05:25:10;13.5;;;7.2;;
72123;SDS011;59998;37.126;-8.538;2022-07-23T05:29:57;14.3;;;7.5;;
72123;SDS011;59998;37.126;-8.538;2022-07-23T05:34:43;16.6;;;7.3;;
72123;SDS011;59998;37.126;-8.538;2022-07-23T05:39:30;16.3;;;7.2;;
72123;SDS011;59998;37.126;-8.538;2022-07-23T05:44:16;12.9;;;6.9;;
72123;SDS011;59998;37.126;-8.538;2022-07-23T05:49:02;12.4;;;6.8;;
72123;SDS011;59998;37.126;-8.538;2022-07-23T05:53:49;11.5;;;6.6;;
72123;SDS011;59998;37.126;-8.538;2022-07-23T05:58:35;10.7;;;6.4;;
72123;SDS011;59998;37.126;-8.538;2022-07-23T06:03:21;12.0;;;6.5;;
72123;SDS011;59998;37.126;-8.538;2022-07-23T06:08:07;12.2;;;6.6;;
72123;SDS011;59998;37.126;-8.538;2022-07-23T06:12:54;13.0;;;6.8;;
72123;SDS011;59998;37.126;-8.538;2022-07-23T06:17:40;11.3;;;6.6;;
72123;SDS011;59998;37.126;-8.538;2022-07-23T06:22:27;10.8;;;6.5;;
72123;SDS011;59998;37.126;-8.538;2022-07-23T06:27:13;12.0;;;6.5;;
72123;SDS011;59998;37.126;-8.538;2022-07-23T06:31:59;11.6;;;6.8;;
72123;SDS011;59998;37.126;-8.538;2022-07-23T06:36:46;14.5;;;7.2;;
72123;SDS011;59998;37.126;-8.538;2022-07-23T06:41:32;17.0;;;7.3;;
72123;SDS011;59998;37.126;-8.538;2022-07-23T06:46:18;18.0;;;7.5;;
72123;SDS011;59998;37.126;-8.538;2022-07-23T06:51:05;17.2;;;7.3;;
72123;SDS011;59998;37.126;-8.538;2022-07-23T06:55:54;20.1;;;7.1;;
72123;SDS011;59998;37.126;-8.538;2022-07-23T07:00:41;13.3;;;7.3;;
72123;SDS011;59998;37.126;-8.538;2022-07-23T07:05:27;13.4;;;7.3;;
72123;SDS011;59998;37.126;-8.538;2022-07-23T07:10:13;12.1;;;7.2;;
72123;SDS011;59998;37.126;-8.538;2022-07-23T07:15:00;12.5;;;7.3;;
72123;SDS011;59998;37.126;-8.538;2022-07-23T07:19:46;18.4;;;7.5;;
72123;SDS011;59998;37.126;-8.538;2022-07-23T07:24:32;17.4;;;7.2;;
72123;SDS011;59998;37.126;-8.538;2022-07-23T07:29:19;11.3;;;7.0;;
72123;SDS011;59998;37.126;-8.538;2022-07-23T07:34:05;13.5;;;8.5;;
72123;SDS011;59998;37.126;-8.538;2022-07-23T07:38:54;14.2;;;8.8;;
72123;SDS011;59998;37.126;-8.538;2022-07-23T07:43:40;12.2;;;7.4;;
72123;SDS011;59998;37.126;-8.538;2022-07-23T07:48:26;15.0;;;7.4;;
72123;SDS011;59998;37.126;-8.538;2022-07-23T07:53:13;17.6;;;7.7;;
72123;SDS011;59998;37.126;-8.538;2022-07-23T07:57:59;18.3;;;8.1;;
72123;SDS011;59998;37.126;-8.538;2022-07-23T08:02:47;17.5;;;8.1;;
72123;SDS011;59998;37.126;-8.538;2022-07-23T08:07:34;13.9;;;7.6;;
72123;SDS011;59998;37.126;-8.538;2022-07-23T08:12:21;11.4;;;7.1;;
72123;SDS011;59998;37.126;-8.538;2022-07-23T08:17:07;15.4;;;7.7;;
72123;SDS011;59998;37.126;-8.538;2022-07-23T08:21:53;15.2;;;7.8;;
72123;SDS011;59998;37.126;-8.538;2022-07-23T08:26:40;11.2;;;7.5;;
72123;SDS011;59998;37.126;-8.538;2022-07-23T08:31:26;11.6;;;7.7;;
72123;SDS011;59998;37.126;-8.538;2022-07-23T08:36:12;12.1;;;7.2;;
72123;SDS011;59998;37.126;-8.538;2022-07-23T08:40:59;11.9;;;6.8;;
72123;SDS011;59998;37.126;-8.538;2022-07-23T08:45:46;11.3;;;8.4;;
72123;SDS011;59998;37.126;-8.538;2022-07-23T08:50:33;14.7;;;9.3;;
72123;SDS011;59998;37.126;-8.538;2022-07-23T08:55:21;13.8;;;7.7;;
72123;SDS011;59998;37.126;-8.538;2022-07-23T09:00:09;11.6;;;7.1;;
72123;SDS011;59998;37.126;-8.538;2022-07-23T09:04:56;11.3;;;6.8;;
72123;SDS011;59998;37.126;-8.538;2022-07-23T09:09:42;14.2;;;6.8;;
72123;SDS011;59998;37.126;-8.538;2022-07-23T09:14:41;13.2;;;6.8;;
72123;SDS011;59998;37.126;-8.538;2022-07-23T09:19:28;10.4;;;6.6;;
72123;SDS011;59998;37.126;-8.538;2022-07-23T09:24:15;10.9;;;6.7;;
72123;SDS011;59998;37.126;-8.538;2022-07-23T09:29:03;10.8;;;6.7;;
72123;SDS011;59998;37.126;-8.538;2022-07-23T09:33:50;10.3;;;6.8;;
72123;SDS011;59998;37.126;-8.538;2022-07-23T09:38:37;10.7;;;6.9;;
72123;SDS011;59998;37.126;-8.538;2022-07-23T09:43:36;10.9;;;6.8;;
72123;SDS011;59998;37.126;-8.538;2022-07-23T09:48:23;10.6;;;6.8;;
72123;SDS011;59998;37.126;-8.538;2022-07-23T09:53:09;11.9;;;7.0;;
72123;SDS011;59998;37.126;-8.538;2022-07-23T09:58:01;14.6;;;7.2;;
72123;SDS011;59998;37.126;-8.538;2022-07-23T10:02:51;13.2;;;7.0;;
72123;SDS011;59998;37.126;-8.538;2022-07-23T10:07:37;12.2;;;6.6;;
72123;SDS011;59998;37.126;-8.538;2022-07-23T10:12:25;15.3;;;6.9;;
72123;SDS011;59998;37.126;-8.538;2022-07-23T10:17:13;15.0;;;6.9;;
72123;SDS011;59998;37.126;-8.538;2022-07-23T10:22:00;13.4;;;6.9;;
72123;SDS011;59998;37.126;-8.538;2022-07-23T10:26:50;13.6;;;7.1;;
72123;SDS011;59998;37.126;-8.538;2022-07-23T10:31:46;15.1;;;7.5;;
72123;SDS011;59998;37.126;-8.538;2022-07-23T10:36:40;15.7;;;7.8;;
72123;SDS011;59998;37.126;-8.538;2022-07-23T10:41:34;12.5;;;7.3;;
72123;SDS011;59998;37.126;-8.538;2022-07-23T10:46:24;10.1;;;6.9;;
72123;SDS011;59998;37.126;-8.538;2022-07-23T10:51:12;12.9;;;7.1;;
72123;SDS011;59998;37.126;-8.538;2022-07-23T10:56:00;13.6;;;7.1;;
72123;SDS011;59998;37.126;-8.538;2022-07-23T11:00:46;12.8;;;7.0;;
72123;SDS011;59998;37.126;-8.538;2022-07-23T11:05:41;15.1;;;7.1;;
72123;SDS011;59998;37.126;-8.538;2022-07-23T11:10:36;16.9;;;6.8;;
72123;SDS011;59998;37.126;-8.538;2022-07-23T11:15:24;15.2;;;7.3;;
72123;SDS011;59998;37.126;-8.538;2022-07-23T11:20:18;13.5;;;7.9;;
72123;SDS011;59998;37.126;-8.538;2022-07-23T11:25:06;15.5;;;7.8;;
72123;SDS011;59998;37.126;-8.538;2022-07-23T11:29:52;14.6;;;7.5;;
72123;SDS011;59998;37.126;-8.538;2022-07-23T11:34:40;14.7;;;7.6;;
72123;SDS011;59998;37.126;-8.538;2022-07-23T11:39:27;19.7;;;8.1;;
72123;SDS011;59998;37.126;-8.538;2022-07-23T11:44:25;17.8;;;8.2;;
72123;SDS011;59998;37.126;-8.538;2022-07-23T11:49:12;14.6;;;7.8;;
72123;SDS011;59998;37.126;-8.538;2022-07-23T11:54:06;15.1;;;7.3;;
72123;SDS011;59998;37.126;-8.538;2022-07-23T11:58:55;13.3;;;7.6;;
72123;SDS011;59998;37.126;-8.538;2022-07-23T12:03:50;12.3;;;7.9;;
72123;SDS011;59998;37.126;-8.538;2022-07-23T12:08:40;16.0;;;8.9;;
72123;SDS011;59998;37.126;-8.538;2022-07-23T12:13:27;20.2;;;10.0;;
72123;SDS011;59998;37.126;-8.538;2022-07-23T12:18:14;17.3;;;8.8;;
72123;SDS011;59998;37.126;-8.538;2022-07-23T12:23:03;16.3;;;8.1;;
72123;SDS011;59998;37.126;-8.538;2022-07-23T12:28:00;16.8;;;8.5;;
72123;SDS011;59998;37.126;-8.538;2022-07-23T12:32:49;13.8;;;8.1;;
72123;SDS011;59998;37.126;-8.538;2022-07-23T12:37:36;12.2;;;7.8;;
72123;SDS011;59998;37.126;-8.538;2022-07-23T12:42:24;13.5;;;8.0;;
72123;SDS011;59998;37.126;-8.538;2022-07-23T12:47:11;15.8;;;8.1;;
72123;SDS011;59998;37.126;-8.538;2022-07-23T12:51:57;14.0;;;7.8;;
72123;SDS011;59998;37.126;-8.538;2022-07-23T12:56:45;12.0;;;7.6;;
72123;SDS011;59998;37.126;-8.538;2022-07-23T13:01:32;14.4;;;8.0;;
72123;SDS011;59998;37.126;-8.538;2022-07-23T13:06:20;16.3;;;8.1;;
72123;SDS011;59998;37.126;-8.538;2022-07-23T13:11:06;16.5;;;8.0;;
72123;SDS011;59998;37.126;-8.538;2022-07-23T13:15:55;15.2;;;8.0;;
72123;SDS011;59998;37.126;-8.538;2022-07-23T13:20:42;12.9;;;7.5;;
72123;SDS011;59998;37.126;-8.538;2022-07-23T13:25:32;13.2;;;7.4;;
72123;SDS011;59998;37.126;-8.538;2022-07-23T13:30:18;15.0;;;7.5;;
72123;SDS011;59998;37.126;-8.538;2022-07-23T13:35:05;15.8;;;7.8;;
72123;SDS011;59998;37.126;-8.538;2022-07-23T13:39:51;15.2;;;8.1;;
72123;SDS011;59998;37.126;-8.538;2022-07-23T13:44:40;14.5;;;8.0;;
72123;SDS011;59998;37.126;-8.538;2022-07-23T13:49:26;14.8;;;8.4;;
72123;SDS011;59998;37.126;-8.538;2022-07-23T13:54:12;15.1;;;8.4;;
72123;SDS011;59998;37.126;-8.538;2022-07-23T13:58:58;15.6;;;8.4;;
72123;SDS011;59998;37.126;-8.538;2022-07-23T14:03:45;15.8;;;8.8;;
72123;SDS011;59998;37.126;-8.538;2022-07-23T14:08:31;14.2;;;8.6;;
72123;SDS011;59998;37.126;-8.538;2022-07-23T14:13:17;13.6;;;8.1;;
72123;SDS011;59998;37.126;-8.538;2022-07-23T14:18:03;15.5;;;8.4;;
72123;SDS011;59998;37.126;-8.538;2022-07-23T14:22:50;14.3;;;7.9;;
72123;SDS011;59998;37.126;-8.538;2022-07-23T14:27:36;12.8;;;7.2;;
72123;SDS011;59998;37.126;-8.538;2022-07-23T14:32:23;14.1;;;11.6;;
72123;SDS011;59998;37.126;-8.538;2022-07-23T14:37:12;29.2;;;12.6;;
72123;SDS011;59998;37.126;-8.538;2022-07-23T14:41:58;18.9;;;8.9;;
72123;SDS011;59998;37.126;-8.538;2022-07-23T14:46:45;16.9;;;8.4;;
72123;SDS011;59998;37.126;-8.538;2022-07-23T14:51:31;20.8;;;8.9;;
72123;SDS011;59998;37.126;-8.538;2022-07-23T14:56:17;21.3;;;9.1;;
72123;SDS011;59998;37.126;-8.538;2022-07-23T15:01:04;19.3;;;7.8;;
72123;SDS011;59998;37.126;-8.538;2022-07-23T15:05:50;15.9;;;7.0;;
72123;SDS011;59998;37.126;-8.538;2022-07-23T15:10:37;12.1;;;6.6;;
72123;SDS011;59998;37.126;-8.538;2022-07-23T15:15:23;12.1;;;6.3;;
72123;SDS011;59998;37.126;-8.538;2022-07-23T15:20:11;16.1;;;6.4;;
72123;SDS011;59998;37.126;-8.538;2022-07-23T15:24:57;16.1;;;6.2;;
72123;SDS011;59998;37.126;-8.538;2022-07-23T15:29:43;11.2;;;6.0;;
72123;SDS011;59998;37.126;-8.538;2022-07-23T15:34:30;13.6;;;6.4;;
72123;SDS011;59998;37.126;-8.538;2022-07-23T15:39:16;13.5;;;6.3;;
72123;SDS011;59998;37.126;-8.538;2022-07-23T15:44:03;12.5;;;6.3;;
72123;SDS011;59998;37.126;-8.538;2022-07-23T15:48:52;11.4;;;6.1;;
72123;SDS011;59998;37.126;-8.538;2022-07-23T15:53:38;8.8;;;5.6;;
72123;SDS011;59998;37.126;-8.538;2022-07-23T15:58:24;11.9;;;5.8;;
72123;SDS011;59998;37.126;-8.538;2022-07-23T16:03:10;12.2;;;5.9;;
72123;SDS011;59998;37.126;-8.538;2022-07-23T16:07:56;10.9;;;6.0;;
72123;SDS011;59998;37.126;-8.538;2022-07-23T16:12:43;11.1;;;6.1;;
72123;SDS011;59998;37.126;-8.538;2022-07-23T16:17:32;13.4;;;6.5;;
72123;SDS011;59998;37.126;-8.538;2022-07-23T16:22:18;13.2;;;6.3;;
72123;SDS011;59998;37.126;-8.538;2022-07-23T16:27:04;11.3;;;5.9;;
72123;SDS011;59998;37.126;-8.538;2022-07-23T16:31:50;11.3;;;5.9;;
72123;SDS011;59998;37.126;-8.538;2022-07-23T16:36:36;11.7;;;6.0;;
72123;SDS011;59998;37.126;-8.538;2022-07-23T16:41:23;14.7;;;6.2;;
72123;SDS011;59998;37.126;-8.538;2022-07-23T16:46:11;14.1;;;5.9;;
72123;SDS011;59998;37.126;-8.538;2022-07-23T16:50:58;12.5;;;6.0;;
72123;SDS011;59998;37.126;-8.538;2022-07-23T16:55:44;12.3;;;6.1;;
72123;SDS011;59998;37.126;-8.538;2022-07-23T17:00:31;13.6;;;6.0;;
72123;SDS011;59998;37.126;-8.538;2022-07-23T17:05:20;15.5;;;6.6;;
72123;SDS011;59998;37.126;-8.538;2022-07-23T17:10:09;14.3;;;6.9;;
72123;SDS011;59998;37.126;-8.538;2022-07-23T17:14:56;15.7;;;6.2;;
72123;SDS011;59998;37.126;-8.538;2022-07-23T17:19:43;13.3;;;6.0;;
72123;SDS011;59998;37.126;-8.538;2022-07-23T17:24:31;8.9;;;6.0;;
72123;SDS011;59998;37.126;-8.538;2022-07-23T17:29:18;9.4;;;5.6;;
72123;SDS011;59998;37.126;-8.538;2022-07-23T17:34:04;11.9;;;5.6;;
72123;SDS011;59998;37.126;-8.538;2022-07-23T17:38:51;11.4;;;5.7;;
72123;SDS011;59998;37.126;-8.538;2022-07-23T17:43:37;8.1;;;5.5;;
72123;SDS011;59998;37.126;-8.538;2022-07-23T17:48:23;8.6;;;5.4;;
72123;SDS011;59998;37.126;-8.538;2022-07-23T17:53:10;8.5;;;5.4;;
72123;SDS011;59998;37.126;-8.538;2022-07-23T17:57:56;9.6;;;5.5;;
72123;SDS011;59998;37.126;-8.538;2022-07-23T18:02:42;9.9;;;5.5;;
72123;SDS011;59998;37.126;-8.538;2022-07-23T18:07:29;9.1;;;5.5;;
72123;SDS011;59998;37.126;-8.538;2022-07-23T18:12:18;11.7;;;5.8;;
72123;SDS011;59998;37.126;-8.538;2022-07-23T18:17:09;12.0;;;6.1;;
72123;SDS011;59998;37.126;-8.538;2022-07-23T18:21:55;13.2;;;7.1;;
72123;SDS011;59998;37.126;-8.538;2022-07-23T18:26:42;14.6;;;7.0;;
72123;SDS011;59998;37.126;-8.538;2022-07-23T18:31:29;12.3;;;5.9;;
72123;SDS011;59998;37.126;-8.538;2022-07-23T18:36:15;10.9;;;6.1;;
72123;SDS011;59998;37.126;-8.538;2022-07-23T18:41:01;11.5;;;6.3;;
72123;SDS011;59998;37.126;-8.538;2022-07-23T18:45:47;10.4;;;6.0;;
72123;SDS011;59998;37.126;-8.538;2022-07-23T18:50:34;9.5;;;5.9;;
72123;SDS011;59998;37.126;-8.538;2022-07-23T18:55:21;9.1;;;6.0;;
72123;SDS011;59998;37.126;-8.538;2022-07-23T19:00:08;8.2;;;6.2;;
72123;SDS011;59998;37.126;-8.538;2022-07-23T19:04:55;9.3;;;6.1;;
72123;SDS011;59998;37.126;-8.538;2022-07-23T19:09:41;9.3;;;5.6;;
72123;SDS011;59998;37.126;-8.538;2022-07-23T19:14:27;8.4;;;5.4;;
72123;SDS011;59998;37.126;-8.538;2022-07-23T21:30:32;11.5;;;7.7;;
72123;SDS011;59998;37.126;-8.538;2022-07-23T21:35:16;11.4;;;7.4;;
72123;SDS011;59998;37.126;-8.538;2022-07-23T21:40:02;11.0;;;6.9;;
72123;SDS011;59998;37.126;-8.538;2022-07-23T21:44:48;11.0;;;6.8;;
72123;SDS011;59998;37.126;-8.538;2022-07-23T21:49:35;11.3;;;6.9;;
